Time;durP1;ratioP1;P1;durP2;ratioP2;P2;SDS_P1;SDS_P2;PMS_P1;PMS_P2;Temp;Humidity;BMP_temperature;BMP_pressure;BME280_temperature;BME280_humidity;BME280_pressure;Samples;Min_cycle;Max_cycle;Signal;HPM_P1;HPM_P2
2023/10/03 00:00:34;;;;;;;10.43;6.03;;;14.90;99.90;;;;;;4943250;29;20192;-88
2023/10/03 00:03:03;;;;;;;12.35;5.63;;;14.90;99.90;;;;;;4943171;29;20185;-90
2023/10/03 00:05:42;;;;;;;14.57;6.15;;;14.90;99.90;;;;;;4960313;29;20185;-87
2023/10/03 00:08:08;;;;;;;7.70;4.88;;;14.90;99.90;;;;;;4943113;29;20265;-88
2023/10/03 00:10:38;;;;;;;12.68;5.95;;;14.90;99.90;;;;;;4943252;29;20220;-87
2023/10/03 00:13:07;;;;;;;11.25;5.90;;;14.90;99.90;;;;;;4942904;29;20178;-88
2023/10/03 00:15:35;;;;;;;8.43;5.03;;;14.90;99.90;;;;;;4927239;29;20644;-86
2023/10/03 00:18:01;;;;;;;9.48;5.70;;;14.90;99.90;;;;;;4923994;29;20182;-88
2023/10/03 00:20:27;;;;;;;10.95;5.80;;;14.80;99.90;;;;;;4923902;29;20225;-93
2023/10/03 00:22:53;;;;;;;11.07;5.07;;;14.80;99.90;;;;;;4923740;29;20174;-96
2023/10/03 00:25:31;;;;;;;10.00;5.78;;;14.70;99.90;;;;;;4923937;29;20178;-95
2023/10/03 00:28:00;;;;;;;12.10;6.00;;;14.70;99.90;;;;;;4924079;29;20185;-92
2023/10/03 00:30:28;;;;;;;9.25;5.22;;;14.60;99.90;;;;;;4923408;29;20217;-93
2023/10/03 00:32:57;;;;;;;9.15;5.53;;;14.60;99.90;;;;;;4923641;29;20525;-92
2023/10/03 00:35:32;;;;;;;9.13;4.93;;;14.60;99.90;;;;;;4923742;29;20182;-95
2023/10/03 00:37:58;;;;;;;10.77;5.82;;;14.60;99.90;;;;;;4923638;29;20189;-95
2023/10/03 00:42:59;;;;;;;10.25;5.70;;;14.50;99.90;;;;;;4940933;29;20506;-95
2023/10/03 00:45:42;;;;;;;12.10;6.22;;;14.50;99.90;;;;;;4937532;29;20274;-95
2023/10/03 00:48:08;;;;;;;10.20;6.00;;;14.50;99.90;;;;;;4942353;29;20193;-94
2023/10/03 00:50:35;;;;;;;11.48;5.90;;;14.50;99.90;;;;;;4942724;29;20315;-94
2023/10/03 00:53:08;;;;;;;10.20;6.25;;;14.40;99.90;;;;;;4942349;29;20189;-93
2023/10/03 00:55:43;;;;;;;10.48;5.35;;;14.40;99.90;;;;;;4943147;29;20204;-96
2023/10/03 01:00:57;;;;;;;12.70;6.97;;;14.30;99.90;;;;;;4960683;29;20208;-95
2023/10/03 01:03:31;;;;;;;12.38;5.78;;;14.40;99.90;;;;;;4942041;29;20192;-94
2023/10/03 01:06:08;;;;;;;10.20;6.00;;;14.40;99.90;;;;;;4942185;29;20181;-94
2023/10/03 01:08:36;;;;;;;11.13;6.05;;;14.50;99.90;;;;;;4942076;29;20256;-94
2023/10/03 01:11:04;;;;;;;13.57;5.93;;;14.60;99.90;;;;;;4941107;29;20237;-95
2023/10/03 01:13:30;;;;;;;10.15;5.90;;;14.60;99.90;;;;;;4942037;29;20215;-95
2023/10/03 01:15:58;;;;;;;9.73;5.70;;;14.60;99.90;;;;;;4941616;29;20511;-94
2023/10/03 01:18:26;;;;;;;12.07;6.15;;;14.70;99.90;;;;;;4941852;29;20205;-96
2023/10/03 01:21:00;;;;;;;10.50;5.70;;;14.70;99.90;;;;;;4957694;29;20213;-94
2023/10/03 01:23:44;;;;;;;11.48;6.15;;;14.80;99.90;;;;;;4941624;29;20186;-90
2023/10/03 01:26:13;;;;;;;10.82;5.82;;;14.80;99.90;;;;;;4941706;29;20182;-92
2023/10/03 01:28:38;;;;;;;13.75;5.90;;;14.80;99.90;;;;;;4941708;29;20173;-93
2023/10/03 01:31:05;;;;;;;13.75;6.07;;;14.80;99.90;;;;;;4941841;29;20223;-88
2023/10/03 01:33:32;;;;;;;12.93;6.45;;;14.90;99.90;;;;;;4941869;29;20687;-90
2023/10/03 01:36:02;;;;;;;11.90;6.30;;;15.00;99.90;;;;;;4942521;29;20192;-94
2023/10/03 01:38:28;;;;;;;11.98;5.97;;;15.10;99.90;;;;;;4944492;29;20169;-95
2023/10/03 01:41:00;;;;;;;11.82;6.63;;;15.20;99.90;;;;;;4946248;29;20213;-86
2023/10/03 01:43:28;;;;;;;12.48;6.40;;;15.20;99.90;;;;;;4964536;29;20232;-86
2023/10/03 01:45:59;;;;;;;12.48;6.55;;;15.30;99.90;;;;;;4923952;29;20310;-90
2023/10/03 01:48:25;;;;;;;11.10;6.15;;;15.30;99.90;;;;;;4925218;29;20222;-94
2023/10/03 01:50:50;;;;;;;12.63;7.32;;;15.30;99.90;;;;;;4924997;29;20221;-93
2023/10/03 01:53:17;;;;;;;14.32;6.57;;;15.30;99.90;;;;;;4940775;29;20187;-85
2023/10/03 01:55:43;;;;;;;12.88;7.05;;;15.30;99.90;;;;;;4928682;29;20209;-86
2023/10/03 01:58:10;;;;;;;11.73;6.35;;;15.30;99.90;;;;;;4952039;23;20269;-87
2023/10/03 02:00:37;;;;;;;11.63;6.65;;;15.40;99.90;;;;;;4923966;29;20224;-90
2023/10/03 02:03:05;;;;;;;12.35;6.47;;;15.40;99.90;;;;;;4923273;29;20181;-86
2023/10/03 02:05:36;;;;;;;17.05;7.10;;;15.50;99.90;;;;;;4923012;29;20557;-86
2023/10/03 02:08:07;;;;;;;14.10;7.75;;;15.60;99.90;;;;;;4940584;29;20189;-86
2023/10/03 02:10:34;;;;;;;14.95;7.47;;;15.60;99.90;;;;;;4923165;29;20206;-87
2023/10/03 02:13:06;;;;;;;12.48;6.88;;;15.70;99.90;;;;;;4923290;29;20174;-89
2023/10/03 02:15:32;;;;;;;10.73;6.78;;;15.70;99.90;;;;;;4923602;29;20543;-86
2023/10/03 02:17:59;;;;;;;15.48;7.57;;;15.70;99.90;;;;;;4924483;29;20177;-89
2023/10/03 02:20:30;;;;;;;12.40;7.18;;;15.80;99.90;;;;;;4923771;29;20569;-86
2023/10/03 02:22:57;;;;;;;15.32;7.90;;;15.80;99.90;;;;;;4921623;29;20177;-87
2023/10/03 02:25:28;;;;;;;15.00;7.35;;;15.80;99.90;;;;;;4922259;29;20257;-88
2023/10/03 02:27:56;;;;;;;13.20;6.57;;;15.80;99.90;;;;;;4923057;29;20237;-85
2023/10/03 02:30:25;;;;;;;16.02;7.75;;;15.80;99.90;;;;;;4940813;29;20205;-86
2023/10/03 02:32:57;;;;;;;17.65;7.20;;;15.80;99.90;;;;;;4922811;29;20265;-87
2023/10/03 02:35:25;;;;;;;15.30;7.43;;;15.80;99.90;;;;;;4924961;29;20186;-85
2023/10/03 02:37:55;;;;;;;14.85;7.55;;;15.80;99.90;;;;;;4924824;29;20268;-83
2023/10/03 02:40:29;;;;;;;12.32;6.75;;;15.80;99.90;;;;;;4924336;29;20166;-85
2023/10/03 02:42:55;;;;;;;14.38;7.38;;;15.80;99.90;;;;;;4924675;29;20178;-87
2023/10/03 02:45:23;;;;;;;14.82;7.45;;;15.80;99.90;;;;;;4924579;29;20203;-85
2023/10/03 02:47:55;;;;;;;13.80;7.05;;;16.00;99.90;;;;;;4924878;29;20177;-85
2023/10/03 02:50:23;;;;;;;13.48;6.93;;;15.90;99.90;;;;;;4925002;29;20202;-85
2023/10/03 02:52:50;;;;;;;17.05;7.55;;;15.90;99.90;;;;;;4924410;29;20617;-83
2023/10/03 02:55:17;;;;;;;13.23;7.75;;;16.00;99.90;;;;;;4924247;29;20182;-84
2023/10/03 02:57:44;;;;;;;13.95;7.20;;;16.00;99.90;;;;;;4923807;29;20243;-84
2023/10/03 03:00:14;;;;;;;15.43;7.28;;;15.90;99.90;;;;;;4941523;29;20174;-84
2023/10/03 03:02:50;;;;;;;14.55;7.15;;;15.90;99.90;;;;;;4924456;29;20613;-84
2023/10/03 03:05:17;;;;;;;16.23;7.35;;;15.90;99.90;;;;;;4941187;29;20248;-86
2023/10/03 03:07:57;;;;;;;14.05;7.50;;;15.90;99.90;;;;;;4923515;29;20220;-84
2023/10/03 03:10:28;;;;;;;18.30;7.53;;;15.80;99.90;;;;;;4924235;29;20206;-83
2023/10/03 03:13:13;;;;;;;13.02;7.18;;;15.80;99.90;;;;;;4941603;29;20210;-84
2023/10/03 03:15:51;;;;;;;15.35;7.60;;;15.80;99.90;;;;;;4923286;29;20535;-88
2023/10/03 03:18:21;;;;;;;14.77;7.93;;;15.90;99.90;;;;;;4923537;29;20181;-84
2023/10/03 03:20:57;;;;;;;15.27;8.07;;;16.00;99.90;;;;;;4923712;29;20218;-84
2023/10/03 03:23:36;;;;;;;12.35;6.90;;;16.00;99.90;;;;;;4923006;29;20169;-84
2023/10/03 03:26:29;;;;;;;16.48;7.85;;;16.10;99.90;;;;;;4922831;29;20181;-85
2023/10/03 03:28:55;;;;;;;16.55;7.38;;;16.20;99.90;;;;;;4922644;29;20178;-83
2023/10/03 03:31:26;;;;;;;15.80;7.57;;;16.40;99.90;;;;;;4925783;29;20224;-86
2023/10/03 03:34:11;;;;;;;15.70;8.65;;;16.40;99.90;;;;;;4933551;29;20182;-85
2023/10/03 03:36:46;;;;;;;17.10;7.65;;;16.40;99.90;;;;;;4950042;29;20216;-84
2023/10/03 03:39:20;;;;;;;15.40;8.35;;;16.40;99.90;;;;;;4984583;23;20239;-83
2023/10/03 03:41:46;;;;;;;20.52;8.20;;;16.50;99.90;;;;;;4971764;28;20184;-82
2023/10/03 03:44:12;;;;;;;15.45;8.15;;;16.50;99.90;;;;;;4973036;28;20184;-85
2023/10/03 03:46:41;;;;;;;15.80;7.78;;;16.50;99.90;;;;;;4974440;28;20181;-84
2023/10/03 03:49:12;;;;;;;14.82;7.78;;;16.50;99.90;;;;;;4975330;28;20177;-84
2023/10/03 03:51:59;;;;;;;16.15;8.10;;;16.50;99.90;;;;;;4997036;23;20247;-84
2023/10/03 03:54:25;;;;;;;15.43;8.18;;;16.50;99.90;;;;;;4978227;29;20189;-84
2023/10/03 03:56:51;;;;;;;15.43;8.10;;;16.50;99.90;;;;;;4961775;29;20252;-85
2023/10/03 03:59:19;;;;;;;17.38;8.07;;;16.50;99.90;;;;;;4972509;23;20327;-85
2023/10/03 04:01:50;;;;;;;16.67;8.35;;;16.60;99.90;;;;;;4980884;28;20176;-85
2023/10/03 04:04:16;;;;;;;14.55;7.57;;;16.50;99.90;;;;;;4981256;28;20208;-87
2023/10/03 04:06:42;;;;;;;13.85;7.60;;;16.50;99.90;;;;;;4999307;28;20251;-88
2023/10/03 04:09:19;;;;;;;14.38;7.53;;;16.50;99.90;;;;;;5003290;23;20294;-87
2023/10/03 04:11:46;;;;;;;16.30;8.70;;;16.50;99.90;;;;;;4980152;28;20259;-87
2023/10/03 04:14:12;;;;;;;15.80;8.32;;;16.50;99.90;;;;;;4975450;23;20232;-85
2023/10/03 04:16:39;;;;;;;16.50;8.20;;;16.50;99.90;;;;;;4967969;28;20231;-84
2023/10/03 04:19:06;;;;;;;15.50;8.13;;;16.50;99.90;;;;;;4970690;23;20244;-87
2023/10/03 04:21:32;;;;;;;16.48;8.75;;;16.50;99.90;;;;;;4963452;29;20509;-85
2023/10/03 04:23:59;;;;;;;13.85;8.15;;;16.50;99.90;;;;;;4963937;29;20264;-85
2023/10/03 04:29:00;;;;;;;13.30;7.47;;;16.40;99.90;;;;;;4998740;23;20229;-85
2023/10/03 04:31:26;;;;;;;17.33;8.40;;;16.30;99.90;;;;;;4970061;29;20268;-85
2023/10/03 04:33:52;;;;;;;17.50;8.50;;;16.20;99.90;;;;;;4968815;29;20224;-85
2023/10/03 04:36:24;;;;;;;16.75;8.40;;;16.20;99.90;;;;;;4969370;29;20181;-84
2023/10/03 04:39:02;;;;;;;16.00;8.68;;;16.10;99.90;;;;;;4966603;29;20185;-84
2023/10/03 04:41:28;;;;;;;16.85;9.02;;;16.00;99.90;;;;;;4969688;29;20181;-85
2023/10/03 04:44:01;;;;;;;19.95;9.68;;;16.00;99.90;;;;;;5001726;23;20275;-85
2023/10/03 04:46:27;;;;;;;20.92;10.15;;;16.00;99.90;;;;;;4976211;28;20189;-85
2023/10/03 04:49:09;;;;;;;18.52;10.18;;;16.10;99.90;;;;;;4979573;29;20241;-84
2023/10/03 04:51:38;;;;;;;20.50;10.05;;;16.10;99.90;;;;;;4979923;29;20217;-84
2023/10/03 04:54:05;;;;;;;19.10;10.30;;;16.20;99.90;;;;;;4976752;29;20189;-95
2023/10/03 04:56:55;;;;;;;24.02;11.02;;;16.20;99.90;;;;;;4982442;28;20165;-86
2023/10/03 04:59:21;;;;;;;20.65;10.75;;;16.40;99.90;;;;;;4982071;28;20187;-85
2023/10/03 05:01:47;;;;;;;24.00;10.52;;;16.50;99.90;;;;;;5319496;23;20241;-84
2023/10/03 05:04:14;;;;;;;19.25;10.85;;;16.50;99.90;;;;;;4965638;29;20304;-84
2023/10/03 05:06:42;;;;;;;18.52;9.75;;;16.50;99.90;;;;;;4964648;28;20608;-83
2023/10/03 05:09:10;;;;;;;20.58;10.23;;;16.50;99.90;;;;;;4948259;28;20192;-84
2023/10/03 05:11:35;;;;;;;20.40;10.85;;;16.50;99.90;;;;;;5075133;23;20245;-85
2023/10/03 05:14:04;;;;;;;21.60;10.63;;;16.50;99.90;;;;;;5044862;23;20296;-82
2023/10/03 05:16:30;;;;;;;19.95;10.75;;;16.50;99.90;;;;;;4973601;28;20185;-85
2023/10/03 05:18:56;;;;;;;17.95;9.68;;;16.50;99.90;;;;;;4974916;28;20200;-85
2023/10/03 05:21:21;;;;;;;20.38;10.07;;;16.60;99.90;;;;;;4991907;28;20176;-84
2023/10/03 05:23:52;;;;;;;18.52;10.80;;;16.60;99.90;;;;;;4975311;28;20263;-82
2023/10/03 05:26:21;;;;;;;23.20;10.65;;;16.70;99.90;;;;;;4975340;28;20183;-84
2023/10/03 05:28:55;;;;;;;25.30;10.65;;;16.70;99.90;;;;;;4975903;28;20233;-84
2023/10/03 05:31:25;;;;;;;22.92;11.73;;;16.70;99.90;;;;;;4992532;28;20219;-84
2023/10/03 05:33:51;;;;;;;22.33;10.65;;;16.70;99.90;;;;;;4975231;28;20184;-82
2023/10/03 05:36:18;;;;;;;23.13;11.50;;;16.70;99.90;;;;;;4976004;28;20200;-84
2023/10/03 05:38:57;;;;;;;23.45;11.05;;;16.70;99.90;;;;;;4976383;28;20176;-84
2023/10/03 05:41:23;;;;;;;24.15;10.82;;;16.70;99.90;;;;;;4976704;28;20200;-83
2023/10/03 05:43:52;;;;;;;22.10;10.77;;;16.70;99.90;;;;;;4976919;28;20180;-84
2023/10/03 05:46:18;;;;;;;23.60;11.85;;;16.80;99.90;;;;;;4976283;28;20215;-84
2023/10/03 05:48:45;;;;;;;20.83;10.68;;;16.80;99.90;;;;;;4976367;28;20180;-92
2023/10/03 05:51:12;;;;;;;20.73;11.30;;;16.80;99.90;;;;;;4975951;28;20208;-83
2023/10/03 05:53:40;;;;;;;22.90;10.32;;;16.90;99.90;;;;;;4994723;23;20328;-84
2023/10/03 05:56:06;;;;;;;22.65;11.00;;;16.90;99.90;;;;;;4956203;28;20177;-85
2023/10/03 05:58:38;;;;;;;29.95;12.05;;;17.00;99.90;;;;;;4956777;29;20200;-83
2023/10/03 06:01:05;;;;;;;23.92;11.88;;;17.00;99.90;;;;;;4956078;29;20227;-83
2023/10/03 06:03:31;;;;;;;26.98;10.95;;;17.20;99.90;;;;;;4942716;29;20188;-84
2023/10/03 06:05:57;;;;;;;24.88;11.20;;;17.20;99.90;;;;;;4958939;29;20192;-84
2023/10/03 06:08:41;;;;;;;24.85;11.55;;;17.20;99.90;;;;;;4957966;29;20963;-84
2023/10/03 06:11:07;;;;;;;23.95;11.43;;;17.40;99.90;;;;;;4959455;29;20219;-85
2023/10/03 06:13:32;;;;;;;21.50;11.20;;;17.40;99.90;;;;;;4959179;29;20201;-82
2023/10/03 06:15:59;;;;;;;24.42;11.32;;;17.40;99.90;;;;;;4959782;29;20181;-82
2023/10/03 06:18:39;;;;;;;20.20;10.88;;;17.40;99.90;;;;;;4959683;29;20181;-83
2023/10/03 06:21:07;;;;;;;23.65;11.10;;;17.40;99.90;;;;;;4960272;29;20197;-82
2023/10/03 06:23:34;;;;;;;22.13;11.57;;;17.40;99.90;;;;;;4959732;29;20232;-83
2023/10/03 06:26:00;;;;;;;21.65;11.50;;;17.40;99.90;;;;;;4960070;29;20209;-83
2023/10/03 06:28:37;;;;;;;24.65;11.32;;;17.50;99.90;;;;;;4976671;28;20237;-84
2023/10/03 06:31:02;;;;;;;22.15;11.27;;;17.50;99.90;;;;;;4977170;29;20231;-83
2023/10/03 06:33:28;;;;;;;23.92;11.57;;;17.60;99.90;;;;;;4959979;29;20181;-83
2023/10/03 06:35:54;;;;;;;30.52;11.60;;;17.60;99.90;;;;;;4960376;29;20265;-83
2023/10/03 06:38:21;;;;;;;20.45;10.98;;;17.70;99.90;;;;;;4959400;29;20193;-82
2023/10/03 06:40:47;;;;;;;24.60;11.75;;;17.70;99.90;;;;;;4959403;29;20193;-83
2023/10/03 06:43:13;;;;;;;27.73;12.38;;;17.70;99.90;;;;;;4977473;29;20164;-83
2023/10/03 06:45:40;;;;;;;23.25;11.75;;;17.70;99.90;;;;;;4977258;29;20173;-83
2023/10/03 06:48:06;;;;;;;23.02;11.73;;;17.70;99.90;;;;;;4960543;29;20177;-83
2023/10/03 06:50:34;;;;;;;23.60;11.63;;;17.70;99.90;;;;;;4979507;23;20237;-84
2023/10/03 06:53:01;;;;;;;24.17;11.82;;;17.80;99.90;;;;;;4961101;29;20617;-84
2023/10/03 06:55:26;;;;;;;21.50;11.32;;;17.80;99.90;;;;;;4980267;28;20177;-84
2023/10/03 06:57:52;;;;;;;22.92;11.10;;;17.90;99.90;;;;;;4998055;28;20211;-84
2023/10/03 07:00:22;;;;;;;26.05;12.30;;;18.00;99.90;;;;;;4997583;28;20200;-84
2023/10/03 07:02:48;;;;;;;21.45;11.35;;;18.00;99.90;;;;;;4982766;28;20157;-83
2023/10/03 07:05:15;;;;;;;21.77;10.98;;;18.10;99.90;;;;;;4998665;28;20168;-83
2023/10/03 07:10:10;;;;;;;23.30;11.25;;;18.30;99.90;;;;;;5252791;23;20264;-85
2023/10/03 07:12:37;;;;;;;24.05;10.82;;;18.40;99.90;;;;;;5109961;23;20240;-94
2023/10/03 07:15:08;;;;;;;22.25;11.38;;;18.50;99.90;;;;;;4970733;29;20178;-89
2023/10/03 07:17:35;;;;;;;23.02;11.48;;;18.70;99.90;;;;;;4972852;29;20193;-91
2023/10/03 07:20:04;;;;;;;27.48;11.32;;;18.80;99.90;;;;;;4981894;23;20531;-85
2023/10/03 07:22:30;;;;;;;21.85;11.02;;;18.90;99.90;;;;;;4957820;29;20220;-95
2023/10/03 07:27:34;;;;;;;21.77;11.02;;;19.10;99.90;;;;;;4993913;23;20234;-96
2023/10/03 07:30:04;;;;;;;17.80;9.85;;;19.20;99.90;;;;;;4976426;28;20216;-96
2023/10/03 07:32:32;;;;;;;23.77;11.07;;;19.30;99.90;;;;;;4972827;28;20184;-95
2023/10/03 07:34:58;;;;;;;20.38;10.25;;;19.30;99.90;;;;;;4946134;29;20204;-85
2023/10/03 07:37:24;;;;;;;21.58;11.25;;;19.30;99.90;;;;;;4947496;29;20181;-94
2023/10/03 07:39:55;;;;;;;22.98;10.52;;;19.30;99.90;;;;;;4963785;29;20192;-84
2023/10/03 07:42:23;;;;;;;23.60;10.65;;;19.40;99.90;;;;;;4946664;29;20177;-85
2023/10/03 07:44:52;;;;;;;21.45;11.05;;;19.40;99.90;;;;;;4955134;28;20188;-91
2023/10/03 07:47:20;;;;;;;21.13;10.57;;;19.40;99.90;;;;;;4967155;28;20187;-86
2023/10/03 07:49:48;;;;;;;23.48;10.80;;;19.50;99.90;;;;;;4984089;28;20169;-91
2023/10/03 07:52:19;;;;;;;19.05;10.70;;;19.50;99.90;;;;;;4983085;28;20161;-87
2023/10/03 07:54:54;;;;;;;20.13;10.60;;;19.60;99.90;;;;;;4963124;28;20525;-89
2023/10/03 07:57:41;;;;;;;19.33;10.13;;;19.60;99.90;;;;;;4967426;28;20173;-88
2023/10/03 08:00:17;;;;;;;21.98;11.13;;;19.60;99.90;;;;;;4967081;28;20189;-90
2023/10/03 08:02:43;;;;;;;20.83;10.77;;;19.60;99.90;;;;;;4964217;28;20169;-94
2023/10/03 08:05:11;;;;;;;23.48;11.43;;;19.70;99.90;;;;;;4983768;28;20173;-92
2023/10/03 08:07:38;;;;;;;21.58;10.30;;;19.60;99.90;;;;;;4986480;28;20255;-91
2023/10/03 08:10:05;;;;;;;19.90;10.20;;;19.70;99.90;;;;;;4990813;28;20183;-91
2023/10/03 08:12:37;;;;;;;20.27;10.02;;;19.70;99.90;;;;;;4964871;28;20185;-93
2023/10/03 08:15:16;;;;;;;20.98;10.80;;;19.70;99.90;;;;;;4963896;28;20204;-96
2023/10/03 08:17:44;;;;;;;23.50;10.70;;;19.70;99.90;;;;;;4986687;28;20156;-91
2023/10/03 08:20:14;;;;;;;20.85;10.40;;;19.80;99.90;;;;;;5054946;23;20268;-91
2023/10/03 08:22:41;;;;;;;20.85;10.75;;;19.70;99.90;;;;;;4947770;29;20182;-96
2023/10/03 08:25:11;;;;;;;21.05;10.02;;;19.80;99.90;;;;;;4949160;29;20182;-90
2023/10/03 08:27:37;;;;;;;23.55;10.85;;;19.80;99.90;;;;;;4953155;29;20688;-93
2023/10/03 08:30:30;;;;;;;23.38;10.70;;;19.80;99.90;;;;;;4948726;29;20209;-95
2023/10/03 08:33:06;;;;;;;19.63;10.02;;;19.90;99.90;;;;;;4975755;23;1213550;-95
2023/10/03 08:35:37;;;;;;;20.08;9.95;;;19.90;99.90;;;;;;4941452;29;20193;-88
2023/10/03 08:38:09;;;;;;;22.40;10.23;;;19.90;99.90;;;;;;4947278;29;20193;-92
2023/10/03 08:40:49;;;;;;;20.58;10.07;;;19.90;99.90;;;;;;4951869;29;20185;-92
2023/10/03 08:43:25;;;;;;;21.45;10.02;;;19.80;99.90;;;;;;4950240;29;20245;-95
2023/10/03 08:45:56;;;;;;;20.25;9.75;;;19.80;99.90;;;;;;4947701;29;20181;-94
2023/10/03 08:48:27;;;;;;;21.70;10.45;;;19.80;99.90;;;;;;4951554;29;20196;-94
2023/10/03 08:50:58;;;;;;;21.75;9.93;;;19.80;99.90;;;;;;4934681;29;20206;-83
2023/10/03 08:53:27;;;;;;;22.58;11.00;;;19.80;99.90;;;;;;4948626;29;20194;-90
2023/10/03 08:56:03;;;;;;;17.98;10.35;;;19.80;99.90;;;;;;4946702;29;20178;-94
2023/10/03 08:58:30;;;;;;;16.88;9.57;;;19.80;99.90;;;;;;4943905;29;20170;-94
2023/10/03 09:01:02;;;;;;;19.55;10.38;;;19.80;99.90;;;;;;4950269;29;20193;-90
2023/10/03 09:03:47;;;;;;;21.30;10.57;;;19.80;99.90;;;;;;4948949;29;20166;-92
2023/10/03 09:06:20;;;;;;;24.52;10.52;;;19.80;99.90;;;;;;4952753;29;20260;-95
2023/10/03 09:08:51;;;;;;;20.02;10.13;;;19.80;99.90;;;;;;4953926;29;20170;-89
2023/10/03 09:11:23;;;;;;;19.92;9.85;;;19.80;99.90;;;;;;4946150;29;20221;-96
2023/10/03 09:13:49;;;;;;;18.23;10.35;;;19.90;99.90;;;;;;4951508;29;20178;-93
2023/10/03 09:16:15;;;;;;;19.30;10.10;;;19.90;99.90;;;;;;4950300;29;20193;-94
2023/10/03 09:18:41;;;;;;;18.52;10.13;;;20.00;99.90;;;;;;4950616;29;20182;-92
2023/10/03 09:21:15;;;;;;;20.80;10.00;;;20.00;99.90;;;;;;4948837;29;20213;-94
2023/10/03 09:24:01;;;;;;;19.98;9.23;;;20.00;99.90;;;;;;4949653;29;20178;-90
2023/10/03 09:27:07;;;;;;;17.50;9.77;;;20.00;99.90;;;;;;4949721;29;20178;-86
2023/10/03 09:29:42;;;;;;;18.67;9.73;;;20.00;99.90;;;;;;4950937;29;20190;-93
2023/10/03 09:32:15;;;;;;;19.35;10.15;;;20.00;99.90;;;;;;4951112;29;20291;-87
2023/10/03 09:34:59;;;;;;;22.75;10.25;;;20.00;99.90;;;;;;4953434;29;20253;-89
2023/10/03 09:37:30;;;;;;;18.98;9.70;;;20.00;99.90;;;;;;4952076;29;20182;-91
2023/10/03 09:40:18;;;;;;;20.77;9.13;;;20.00;99.90;;;;;;4952757;29;20178;-94
2023/10/03 09:42:50;;;;;;;17.90;9.40;;;20.10;99.90;;;;;;4952473;29;20214;-93
2023/10/03 09:45:24;;;;;;;18.30;9.43;;;20.10;99.90;;;;;;4953275;29;20178;-88
2023/10/03 09:47:58;;;;;;;15.68;9.65;;;20.20;99.90;;;;;;4954019;29;20181;-93
2023/10/03 09:50:31;;;;;;;18.75;9.48;;;20.20;99.90;;;;;;4957545;29;20703;-91
2023/10/03 09:53:02;;;;;;;19.38;9.35;;;20.30;99.90;;;;;;4951577;29;20177;-95
2023/10/03 09:55:46;;;;;;;21.52;10.05;;;20.30;99.90;;;;;;4951075;29;20549;-94
2023/10/03 09:58:24;;;;;;;22.73;9.65;;;20.30;99.90;;;;;;4950183;29;20210;-90
2023/10/03 10:00:52;;;;;;;17.50;9.90;;;20.30;99.90;;;;;;4952643;29;20177;-93
2023/10/03 10:03:26;;;;;;;19.15;9.65;;;20.20;99.90;;;;;;4952197;29;20173;-94
2023/10/03 10:06:37;;;;;;;18.52;9.60;;;20.20;99.90;;;;;;4953781;29;20190;-90
2023/10/03 10:09:29;;;;;;;16.92;9.20;;;20.20;99.90;;;;;;4953507;29;20221;-94
2023/10/03 10:12:11;;;;;;;18.30;9.30;;;20.20;99.90;;;;;;4951657;29;20399;-92
2023/10/03 10:17:45;;;;;;;19.73;10.10;;;20.30;99.90;;;;;;4922010;29;20186;-85
2023/10/03 10:20:32;;;;;;;15.18;8.80;;;20.30;99.90;;;;;;4934801;29;20676;-83
2023/10/03 10:23:02;;;;;;;16.10;9.65;;;20.40;99.90;;;;;;4935502;29;20184;-85
2023/10/03 10:25:28;;;;;;;17.45;8.70;;;20.40;99.90;;;;;;4951690;29;20711;-84
2023/10/03 10:28:08;;;;;;;14.95;9.30;;;20.50;99.90;;;;;;4954007;29;20189;-90
2023/10/03 10:30:44;;;;;;;17.23;9.73;;;20.60;99.90;;;;;;4953636;29;20245;-86
2023/10/03 10:33:20;;;;;;;18.42;9.02;;;20.80;99.90;;;;;;4946525;29;20257;-86
2023/10/03 10:36:03;;;;;;;14.95;8.27;;;21.10;99.90;;;;;;4947837;29;20169;-88
2023/10/03 10:41:27;;;;;;;15.38;8.57;;;21.30;99.90;;;;;;5075622;23;20573;-86
2023/10/03 10:44:13;;;;;;;16.25;8.68;;;21.40;99.90;;;;;;4951687;29;20177;-86
2023/10/03 10:46:46;;;;;;;12.88;7.85;;;21.50;99.90;;;;;;4954129;29;20169;-95
2023/10/03 10:49:30;;;;;;;19.83;7.82;;;21.60;99.90;;;;;;4954919;29;20176;-88
2023/10/03 10:52:06;;;;;;;13.73;7.38;;;21.80;99.90;;;;;;4953270;29;20224;-94
2023/10/03 10:54:42;;;;;;;19.17;7.25;;;21.80;99.90;;;;;;4968935;29;20176;-94
2023/10/03 10:57:16;;;;;;;12.82;6.75;;;21.70;99.90;;;;;;4956065;29;20255;-93
2023/10/03 10:59:46;;;;;;;15.82;7.03;;;21.70;99.90;;;;;;4955031;29;20212;-88
2023/10/03 11:02:28;;;;;;;13.23;6.22;;;21.60;99.90;;;;;;4954630;29;20276;-89
2023/10/03 11:04:54;;;;;;;13.77;6.22;;;21.70;99.90;;;;;;4957294;29;20204;-85
2023/10/03 11:07:22;;;;;;;11.73;6.03;;;21.60;99.90;;;;;;4970437;29;20179;-92
2023/10/03 11:09:48;;;;;;;14.27;5.82;;;21.70;99.90;;;;;;4966583;29;20189;-93
2023/10/03 11:12:22;;;;;;;12.20;5.88;;;21.60;99.90;;;;;;4955004;29;20206;-95
2023/10/03 11:14:48;;;;;;;12.20;5.28;;;21.60;99.90;;;;;;4954689;29;20173;-94
2023/10/03 11:17:15;;;;;;;11.43;5.57;;;21.50;99.90;;;;;;4953503;29;20201;-87
2023/10/03 11:19:41;;;;;;;14.35;5.53;;;21.40;99.90;;;;;;4952769;29;20208;-95
2023/10/03 11:22:15;;;;;;;9.20;5.25;;;21.50;99.90;;;;;;4954971;29;20276;-87
2023/10/03 11:24:42;;;;;;;11.65;5.68;;;21.60;99.90;;;;;;4955617;29;20214;-93
2023/10/03 11:27:26;;;;;;;12.57;5.15;;;21.80;99.90;;;;;;4974660;29;20185;-87
2023/10/03 11:29:52;;;;;;;10.60;4.20;;;22.00;99.90;;;;;;4971772;29;20676;-93
2023/10/03 11:32:29;;;;;;;12.20;3.63;;;22.10;99.90;;;;;;4971165;29;20252;-92
2023/10/03 11:34:57;;;;;;;9.45;2.72;;;22.00;99.90;;;;;;5062328;23;20295;-88
2023/10/03 11:37:30;;;;;;;10.80;3.30;;;21.90;99.90;;;;;;4965204;28;20169;-87
2023/10/03 11:40:11;;;;;;;6.93;2.80;;;22.00;99.90;;;;;;4958479;28;20209;-86
2023/10/03 11:42:57;;;;;;;10.25;3.28;;;21.90;99.90;;;;;;4956630;29;20651;-87
2023/10/03 11:45:24;;;;;;;7.78;3.35;;;21.80;99.90;;;;;;4956390;29;20284;-93
2023/10/03 11:48:19;;;;;;;5.45;2.65;;;21.70;99.90;;;;;;4956054;29;20188;-85
2023/10/03 11:50:47;;;;;;;8.65;2.92;;;21.70;99.90;;;;;;4953665;29;20217;-89
2023/10/03 11:53:13;;;;;;;4.78;2.47;;;21.50;99.90;;;;;;4957114;28;20174;-88
2023/10/03 11:55:43;;;;;;;4.43;2.72;;;21.40;99.90;;;;;;4958376;28;20224;-87
2023/10/03 11:58:10;;;;;;;9.40;3.05;;;21.30;99.90;;;;;;4960486;28;20177;-88
2023/10/03 12:00:46;;;;;;;8.85;2.85;;;21.30;99.90;;;;;;4960974;29;20220;-89
2023/10/03 12:03:12;;;;;;;8.10;3.03;;;21.40;99.90;;;;;;4967771;29;20204;-86
2023/10/03 12:05:39;;;;;;;7.22;2.80;;;21.60;99.90;;;;;;4973653;29;20268;-87
2023/10/03 12:08:05;;;;;;;11.18;2.97;;;21.70;99.90;;;;;;4966625;29;20279;-87
2023/10/03 12:10:34;;;;;;;6.18;2.90;;;21.80;99.90;;;;;;4963168;29;20216;-87
2023/10/03 12:13:00;;;;;;;6.90;3.55;;;22.00;99.90;;;;;;4964962;29;20182;-87
2023/10/03 12:15:25;;;;;;;7.68;3.30;;;22.00;99.90;;;;;;4973611;29;20181;-87
2023/10/03 12:17:59;;;;;;;9.40;3.50;;;21.90;99.90;;;;;;4974515;29;20196;-93
2023/10/03 12:20:25;;;;;;;6.93;3.13;;;21.90;99.90;;;;;;4974976;29;20219;-89
2023/10/03 12:22:52;;;;;;;9.18;3.08;;;21.80;99.90;;;;;;4975485;29;20173;-96
2023/10/03 12:25:20;;;;;;;8.60;3.78;;;21.70;99.90;;;;;;4978111;28;20221;-92
2023/10/03 12:27:46;;;;;;;9.77;3.70;;;21.50;99.90;;;;;;4975112;29;20173;-89
2023/10/03 12:30:16;;;;;;;4.80;3.28;;;21.40;99.90;;;;;;4975325;29;20208;-90
2023/10/03 12:32:50;;;;;;;5.53;3.15;;;21.30;99.90;;;;;;4976271;29;20185;-95
2023/10/03 12:35:17;;;;;;;5.35;3.10;;;21.20;99.90;;;;;;4974557;29;20660;-92
2023/10/03 12:37:44;;;;;;;5.00;3.20;;;21.20;99.90;;;;;;4959133;29;20212;-95
2023/10/03 12:40:16;;;;;;;7.15;3.28;;;21.20;99.90;;;;;;4997080;23;20244;-96
2023/10/03 12:42:57;;;;;;;7.22;3.40;;;21.20;99.90;;;;;;4976995;28;20180;-94
2023/10/03 12:45:26;;;;;;;7.20;3.33;;;21.10;99.90;;;;;;4976457;28;20196;-94
2023/10/03 12:47:53;;;;;;;6.63;3.35;;;21.20;99.90;;;;;;4992470;23;20270;-94
2023/10/03 12:50:21;;;;;;;6.32;3.63;;;21.20;99.90;;;;;;4956457;29;20222;-95
2023/10/03 12:52:57;;;;;;;6.93;3.47;;;21.10;99.90;;;;;;4958090;29;20205;-90
2023/10/03 12:55:28;;;;;;;6.03;3.70;;;21.00;99.90;;;;;;4939766;29;20184;-95
2023/10/03 12:58:05;;;;;;;8.30;3.17;;;21.00;99.90;;;;;;4954933;29;20174;-96
2023/10/03 13:00:31;;;;;;;7.75;3.10;;;20.90;99.90;;;;;;4953568;29;20170;-95
2023/10/03 13:03:11;;;;;;;5.25;3.28;;;20.90;99.90;;;;;;4955222;29;20203;-88
2023/10/03 13:05:37;;;;;;;6.18;2.80;;;20.90;99.90;;;;;;4952946;29;20245;-96
2023/10/03 13:08:03;;;;;;;7.07;2.58;;;20.90;99.90;;;;;;4945020;29;20178;-94
2023/10/03 13:10:30;;;;;;;5.68;2.63;;;20.90;99.90;;;;;;4946697;29;20261;-91
2023/10/03 13:12:57;;;;;;;6.85;2.80;;;20.90;99.90;;;;;;4948006;29;20210;-93